Time;durP1;ratioP1;P1;durP2;ratioP2;P2;SDS_P1;SDS_P2;PMS_P1;PMS_P2;Temp;Humidity;BMP_temperature;BMP_pressure;BME280_temperature;BME280_humidity;BME280_pressure;Samples;Min_cycle;Max_cycle;Signal;HPM_P1;HPM_P2
2022/05/18 00:01:29;;;;;;;3.80;1.70;;;;;;;;;;4958814;28;20278;-38
2022/05/18 00:03:56;;;;;;;3.55;1.65;;;;;;;;;;4959558;29;20211;-38
2022/05/18 00:06:23;;;;;;;3.25;1.75;;;;;;;;;;4958790;29;20535;-39
2022/05/18 00:09:01;;;;;;;8.98;1.85;;;;;;;;;;4957769;29;20762;-38
2022/05/18 00:11:34;;;;;;;3.20;1.60;;;;;;;;;;4958006;29;20555;-39
2022/05/18 00:14:00;;;;;;;3.97;1.58;;;;;;;;;;4958023;29;20207;-39
2022/05/18 00:16:31;;;;;;;8.32;2.10;;;;;;;;;;4958804;29;20239;-38
2022/05/18 00:19:14;;;;;;;7.95;2.00;;;;;;;;;;4958204;29;20219;-39
2022/05/18 00:21:46;;;;;;;4.05;1.55;;;;;;;;;;4958482;29;20282;-38
2022/05/18 00:24:13;;;;;;;3.47;1.60;;;;;;;;;;4958878;29;20215;-38
2022/05/18 00:26:40;;;;;;;5.82;1.75;;;;;;;;;;4958987;29;20230;-38
2022/05/18 00:29:12;;;;;;;5.40;1.63;;;;;;;;;;4958732;29;20227;-38
2022/05/18 00:31:41;;;;;;;5.85;1.40;;;;;;;;;;4958942;29;20251;-38
2022/05/18 00:34:11;;;;;;;2.83;1.80;;;;;;;;;;4959176;29;20222;-38
2022/05/18 00:36:42;;;;;;;3.15;1.40;;;;;;;;;;4957560;29;20634;-38
2022/05/18 00:39:12;;;;;;;6.95;2.70;;;;;;;;;;4958718;29;20276;-38
2022/05/18 00:41:52;;;;;;;8.75;1.65;;;;;;;;;;4943209;29;20210;-38
2022/05/18 00:44:28;;;;;;;5.50;1.70;;;;;;;;;;4958735;29;20226;-38
2022/05/18 00:46:55;;;;;;;6.45;2.00;;;;;;;;;;4958547;29;20207;-39
2022/05/18 00:49:57;;;;;;;6.28;2.00;;;;;;;;;;4958499;29;20214;-38
2022/05/18 00:52:34;;;;;;;10.25;2.10;;;;;;;;;;4941875;29;20203;-38
2022/05/18 00:55:24;;;;;;;10.40;2.15;;;;;;;;;;4958428;29;20219;-39
2022/05/18 00:57:56;;;;;;;6.13;2.05;;;;;;;;;;4957249;29;20652;-38
2022/05/18 01:00:35;;;;;;;6.13;2.20;;;;;;;;;;4957595;29;20578;-38
2022/05/18 01:03:25;;;;;;;4.43;1.97;;;;;;;;;;4944122;29;20211;-38
2022/05/18 01:05:58;;;;;;;9.77;1.90;;;;;;;;;;4941311;29;20246;-38
2022/05/18 01:08:37;;;;;;;9.33;2.10;;;;;;;;;;4957991;29;20231;-40
2022/05/18 01:11:06;;;;;;;6.88;1.60;;;;;;;;;;4941892;29;20218;-38
2022/05/18 01:13:35;;;;;;;8.48;2.13;;;;;;;;;;4909976;29;20231;-38
2022/05/18 01:16:12;;;;;;;3.67;1.73;;;;;;;;;;4957989;29;20207;-38
2022/05/18 01:18:39;;;;;;;7.53;2.13;;;;;;;;;;4942851;29;20203;-40
2022/05/18 01:21:09;;;;;;;5.93;1.50;;;;;;;;;;4956753;29;20678;-39
2022/05/18 01:23:39;;;;;;;6.40;1.50;;;;;;;;;;4940959;29;20587;-38
2022/05/18 01:26:41;;;;;;;3.67;1.70;;;;;;;;;;4957853;29;20502;-38
2022/05/18 01:29:09;;;;;;;6.20;2.20;;;;;;;;;;4940776;29;20367;-38
2022/05/18 01:32:05;;;;;;;9.10;2.55;;;;;;;;;;4940237;29;20306;-38
2022/05/18 01:34:37;;;;;;;6.03;1.67;;;;;;;;;;4957818;29;20498;-38
2022/05/18 01:37:04;;;;;;;2.58;1.58;;;;;;;;;;4957295;29;20207;-39
2022/05/18 01:39:36;;;;;;;5.18;2.17;;;;;;;;;;4958070;29;20211;-38
2022/05/18 01:42:06;;;;;;;3.72;1.88;;;;;;;;;;4940960;29;20591;-38
2022/05/18 01:44:38;;;;;;;8.90;1.80;;;;;;;;;;4957284;29;20187;-38
2022/05/18 01:47:06;;;;;;;7.53;2.00;;;;;;;;;;4957580;29;20586;-38
2022/05/18 01:49:35;;;;;;;6.57;2.42;;;;;;;;;;4957542;29;20327;-38
2022/05/18 01:52:03;;;;;;;4.60;2.22;;;;;;;;;;4940594;29;20211;-38
2022/05/18 01:54:39;;;;;;;9.10;2.20;;;;;;;;;;4956955;29;20203;-38
2022/05/18 01:57:09;;;;;;;4.55;2.13;;;;;;;;;;4957255;29;20191;-38
2022/05/18 01:59:37;;;;;;;5.97;2.40;;;;;;;;;;4957112;29;20211;-38
2022/05/18 02:02:10;;;;;;;7.60;2.60;;;;;;;;;;4956114;29;20207;-38
2022/05/18 02:04:39;;;;;;;7.83;2.17;;;;;;;;;;4957062;29;20203;-38
2022/05/18 02:07:10;;;;;;;11.63;2.67;;;;;;;;;;4956827;29;20642;-39
2022/05/18 02:09:37;;;;;;;9.25;2.88;;;;;;;;;;4956745;29;20364;-38
2022/05/18 02:12:08;;;;;;;4.90;2.50;;;;;;;;;;4956869;29;20218;-39
2022/05/18 02:14:36;;;;;;;7.80;2.88;;;;;;;;;;4955763;29;20203;-39
2022/05/18 02:17:05;;;;;;;11.45;2.72;;;;;;;;;;4956799;29;20207;-38
2022/05/18 02:19:36;;;;;;;6.75;2.50;;;;;;;;;;4956755;29;20203;-38
2022/05/18 02:22:06;;;;;;;9.57;2.92;;;;;;;;;;4956653;29;20199;-38
2022/05/18 02:24:36;;;;;;;13.23;3.50;;;;;;;;;;4955337;28;20281;-39
2022/05/18 02:27:06;;;;;;;8.93;3.20;;;;;;;;;;4956501;29;20218;-38
2022/05/18 02:29:34;;;;;;;12.20;3.43;;;;;;;;;;4956272;29;20227;-38
2022/05/18 02:32:01;;;;;;;7.25;3.45;;;;;;;;;;4956168;29;20231;-39
2022/05/18 02:34:28;;;;;;;8.77;3.58;;;;;;;;;;4956646;29;20502;-38
2022/05/18 02:36:59;;;;;;;9.47;2.97;;;;;;;;;;4956372;29;20626;-39
2022/05/18 02:39:25;;;;;;;9.45;2.92;;;;;;;;;;4956515;29;20200;-38
2022/05/18 02:41:54;;;;;;;4.53;2.10;;;;;;;;;;4956204;29;20578;-38
2022/05/18 02:44:21;;;;;;;7.50;2.60;;;;;;;;;;4956199;29;20211;-39
2022/05/18 02:46:48;;;;;;;7.07;2.58;;;;;;;;;;4956614;29;20649;-38
2022/05/18 02:49:17;;;;;;;8.40;2.73;;;;;;;;;;4956296;29;20246;-38
2022/05/18 02:51:44;;;;;;;8.35;2.88;;;;;;;;;;4956687;29;20219;-40
2022/05/18 02:57:01;;;;;;;5.05;2.15;;;;;;;;;;4956409;29;20219;-38
2022/05/18 02:59:31;;;;;;;7.05;2.35;;;;;;;;;;4956317;29;20692;-38
2022/05/18 03:01:59;;;;;;;4.07;2.20;;;;;;;;;;4971094;28;20564;-38
2022/05/18 03:04:29;;;;;;;5.07;2.17;;;;;;;;;;4956941;29;20207;-38
2022/05/18 03:06:57;;;;;;;4.17;2.10;;;;;;;;;;4956502;29;20211;-38
2022/05/18 03:09:24;;;;;;;3.73;2.20;;;;;;;;;;4956418;29;20227;-39
2022/05/18 03:11:53;;;;;;;6.60;2.40;;;;;;;;;;4956507;29;20207;-38
2022/05/18 03:14:24;;;;;;;6.17;2.30;;;;;;;;;;4956627;29;20192;-38
2022/05/18 03:16:52;;;;;;;6.37;2.00;;;;;;;;;;4956671;29;20211;-38
2022/05/18 03:19:26;;;;;;;6.47;2.50;;;;;;;;;;4956433;29;20270;-38
2022/05/18 03:24:43;;;;;;;6.17;2.43;;;;;;;;;;4956710;29;20295;-38
2022/05/18 03:27:10;;;;;;;7.23;2.60;;;;;;;;;;4956274;29;20211;-38
2022/05/18 03:29:37;;;;;;;5.27;2.57;;;;;;;;;;4954665;29;20310;-38
2022/05/18 03:32:10;;;;;;;6.13;2.23;;;;;;;;;;4957183;29;20237;-38
2022/05/18 03:34:37;;;;;;;8.30;2.07;;;;;;;;;;4951096;28;20231;-39
2022/05/18 03:37:05;;;;;;;4.97;2.40;;;;;;;;;;4958993;29;20235;-38
2022/05/18 03:39:32;;;;;;;4.77;2.03;;;;;;;;;;4958991;28;20231;-38
2022/05/18 03:41:59;;;;;;;4.30;1.87;;;;;;;;;;4951126;29;20610;-39
2022/05/18 03:44:26;;;;;;;2.10;1.67;;;;;;;;;;4939056;29;20318;-39
2022/05/18 03:46:54;;;;;;;3.30;1.90;;;;;;;;;;4948944;29;20239;-38
2022/05/18 03:49:21;;;;;;;5.83;1.50;;;;;;;;;;4957688;28;20326;-39
2022/05/18 03:51:51;;;;;;;6.60;1.87;;;;;;;;;;4958773;29;20236;-41
2022/05/18 03:54:25;;;;;;;2.23;1.40;;;;;;;;;;4958760;29;20294;-37
2022/05/18 03:56:52;;;;;;;5.00;1.77;;;;;;;;;;4958535;29;20638;-40
2022/05/18 03:59:19;;;;;;;3.97;1.80;;;;;;;;;;4956822;28;20721;-41
2022/05/18 04:01:48;;;;;;;3.33;1.77;;;;;;;;;;4956283;29;20263;-40
2022/05/18 04:04:15;;;;;;;6.83;1.80;;;;;;;;;;4956700;28;20238;-38
2022/05/18 04:06:42;;;;;;;3.60;2.20;;;;;;;;;;4957668;29;20227;-39
2022/05/18 04:09:09;;;;;;;1.67;1.40;;;;;;;;;;4958183;28;20665;-41
2022/05/18 04:11:40;;;;;;;5.80;1.80;;;;;;;;;;4941187;29;20682;-40
2022/05/18 04:14:07;;;;;;;3.27;1.70;;;;;;;;;;4956162;29;20250;-38
2022/05/18 04:16:34;;;;;;;7.43;1.70;;;;;;;;;;4957914;28;20220;-40
2022/05/18 04:19:01;;;;;;;3.50;1.50;;;;;;;;;;4957061;29;20223;-38
2022/05/18 04:21:30;;;;;;;4.47;1.47;;;;;;;;;;4957586;28;20220;-39
2022/05/18 04:23:58;;;;;;;3.77;1.80;;;;;;;;;;4957784;29;20807;-39
2022/05/18 04:26:24;;;;;;;3.50;1.90;;;;;;;;;;4958055;28;20266;-39
2022/05/18 04:28:51;;;;;;;5.67;1.80;;;;;;;;;;4957856;29;20231;-39
2022/05/18 04:31:19;;;;;;;5.93;1.80;;;;;;;;;;4957659;28;20321;-40
2022/05/18 04:33:46;;;;;;;6.60;1.37;;;;;;;;;;4957316;29;20235;-40
2022/05/18 04:36:13;;;;;;;2.80;1.67;;;;;;;;;;4957778;28;20289;-40
2022/05/18 04:38:40;;;;;;;4.80;1.70;;;;;;;;;;4957330;29;20211;-39
2022/05/18 04:41:07;;;;;;;3.67;1.57;;;;;;;;;;4957359;29;20234;-39
2022/05/18 04:43:34;;;;;;;5.20;1.53;;;;;;;;;;4957426;29;20215;-42
2022/05/18 04:46:02;;;;;;;2.70;1.37;;;;;;;;;;4951804;28;20278;-40
2022/05/18 04:48:31;;;;;;;2.80;1.33;;;;;;;;;;4955043;29;20215;-39
2022/05/18 04:51:05;;;;;;;3.23;1.47;;;;;;;;;;4954094;29;20662;-41
2022/05/18 04:53:34;;;;;;;6.10;1.53;;;;;;;;;;4953425;29;20211;-39
2022/05/18 04:56:02;;;;;;;4.55;1.33;;;;;;;;;;4956902;29;20227;-40
2022/05/18 04:58:29;;;;;;;2.50;1.25;;;;;;;;;;4957001;29;20567;-40
2022/05/18 05:01:03;;;;;;;2.72;1.17;;;;;;;;;;4956537;29;20227;-41
2022/05/18 05:03:33;;;;;;;2.15;1.60;;;;;;;;;;4956858;29;20261;-39
2022/05/18 05:06:03;;;;;;;3.85;1.35;;;;;;;;;;4956880;29;20237;-39
2022/05/18 05:08:30;;;;;;;5.07;1.60;;;;;;;;;;4957050;29;20282;-40
2022/05/18 05:10:57;;;;;;;3.47;2.13;;;;;;;;;;4956566;29;20284;-40
2022/05/18 05:13:25;;;;;;;4.07;1.20;;;;;;;;;;4956790;29;20219;-39
2022/05/18 05:16:00;;;;;;;3.97;1.65;;;;;;;;;;4956750;29;20678;-38
2022/05/18 05:18:27;;;;;;;3.67;1.10;;;;;;;;;;4956858;29;20231;-39
2022/05/18 05:20:54;;;;;;;3.15;1.17;;;;;;;;;;4956371;29;20223;-39
2022/05/18 05:23:24;;;;;;;9.00;1.50;;;;;;;;;;4956995;29;20238;-40
2022/05/18 05:25:51;;;;;;;5.78;1.38;;;;;;;;;;4956497;29;20227;-40
2022/05/18 05:28:19;;;;;;;1.40;1.00;;;;;;;;;;4957672;29;20222;-39
2022/05/18 05:30:46;;;;;;;1.90;1.25;;;;;;;;;;4957130;29;20239;-38
2022/05/18 05:33:13;;;;;;;6.50;1.38;;;;;;;;;;4957750;29;20219;-39
2022/05/18 05:35:41;;;;;;;2.45;1.08;;;;;;;;;;4957668;29;20207;-38
2022/05/18 05:38:09;;;;;;;2.08;1.17;;;;;;;;;;4957366;29;20543;-39
2022/05/18 05:40:38;;;;;;;1.80;1.00;;;;;;;;;;4957583;29;20214;-38
2022/05/18 05:43:07;;;;;;;1.50;1.13;;;;;;;;;;4957311;29;20231;-39
2022/05/18 05:45:34;;;;;;;2.53;1.02;;;;;;;;;;4957506;29;20204;-39
2022/05/18 05:48:01;;;;;;;3.33;1.20;;;;;;;;;;4957244;29;20212;-38
2022/05/18 05:50:28;;;;;;;2.90;1.52;;;;;;;;;;4957359;29;20223;-39
2022/05/18 05:52:55;;;;;;;2.78;0.90;;;;;;;;;;4957078;29;20634;-38
2022/05/18 05:55:22;;;;;;;2.78;1.20;;;;;;;;;;4957121;29;20211;-39
2022/05/18 05:57:52;;;;;;;1.88;1.05;;;;;;;;;;4956698;28;20636;-38
2022/05/18 06:00:19;;;;;;;2.20;0.98;;;;;;;;;;4957277;29;20203;-39
2022/05/18 06:02:46;;;;;;;3.50;1.20;;;;;;;;;;4956872;29;20226;-38
2022/05/18 06:05:13;;;;;;;2.00;1.10;;;;;;;;;;4956903;29;20219;-39
2022/05/18 06:07:40;;;;;;;1.67;0.90;;;;;;;;;;4957291;29;20211;-39
2022/05/18 06:10:08;;;;;;;1.52;0.90;;;;;;;;;;4956988;29;20530;-39
2022/05/18 06:12:35;;;;;;;4.68;1.00;;;;;;;;;;4957247;29;20211;-38
2022/05/18 06:15:03;;;;;;;1.95;0.73;;;;;;;;;;4957058;29;20267;-38
2022/05/18 06:17:30;;;;;;;0.57;0.52;;;;;;;;;;4956909;29;20222;-38
2022/05/18 06:19:57;;;;;;;1.75;0.88;;;;;;;;;;4956976;29;20204;-39
2022/05/18 06:22:25;;;;;;;1.88;0.80;;;;;;;;;;4937992;29;20223;-39
2022/05/18 06:24:53;;;;;;;2.00;1.02;;;;;;;;;;4937975;29;20295;-39
2022/05/18 06:27:20;;;;;;;1.45;0.90;;;;;;;;;;4947684;29;20207;-38
2022/05/18 06:29:50;;;;;;;1.48;0.73;;;;;;;;;;4956887;29;20223;-39
2022/05/18 06:32:18;;;;;;;3.97;0.70;;;;;;;;;;4957160;29;20250;-39
2022/05/18 06:34:45;;;;;;;2.15;0.80;;;;;;;;;;4956895;29;20297;-38
2022/05/18 06:37:12;;;;;;;1.30;0.80;;;;;;;;;;4956498;29;20364;-39
2022/05/18 06:39:40;;;;;;;1.67;0.90;;;;;;;;;;4956762;29;20638;-38
2022/05/18 06:42:07;;;;;;;1.90;1.00;;;;;;;;;;4956525;29;20642;-39
2022/05/18 06:44:40;;;;;;;2.05;0.82;;;;;;;;;;4939924;29;20199;-39
2022/05/18 06:47:09;;;;;;;3.65;0.88;;;;;;;;;;4956768;29;20211;-39
2022/05/18 06:49:36;;;;;;;5.80;0.85;;;;;;;;;;4956562;29;20227;-39
2022/05/18 06:52:03;;;;;;;1.83;0.82;;;;;;;;;;4956683;29;20254;-38
2022/05/18 06:54:30;;;;;;;3.72;0.70;;;;;;;;;;4956683;29;20229;-39
2022/05/18 06:57:17;;;;;;;3.47;0.73;;;;;;;;;;4957024;29;20217;-38
2022/05/18 06:59:44;;;;;;;2.72;0.52;;;;;;;;;;4956570;29;20215;-38
2022/05/18 07:02:11;;;;;;;3.28;0.80;;;;;;;;;;4956432;29;20271;-39
2022/05/18 07:04:38;;;;;;;2.72;1.23;;;;;;;;;;4956438;29;20207;-39
2022/05/18 07:07:16;;;;;;;2.75;1.15;;;;;;;;;;4956949;29;20211;-39
2022/05/18 07:09:43;;;;;;;3.58;0.63;;;;;;;;;;4956740;28;20625;-38
2022/05/18 07:12:10;;;;;;;3.95;0.93;;;;;;;;;;4960116;29;20238;-39
2022/05/18 07:14:37;;;;;;;3.50;1.15;;;;;;;;;;4960263;29;20278;-38
2022/05/18 07:17:04;;;;;;;1.00;0.60;;;;;;;;;;4960420;29;20231;-39
2022/05/18 07:19:31;;;;;;;2.42;0.90;;;;;;;;;;4960086;29;20208;-38
2022/05/18 07:21:58;;;;;;;3.58;0.77;;;;;;;;;;4960084;29;20215;-39
2022/05/18 07:24:25;;;;;;;1.15;0.68;;;;;;;;;;4960206;29;20207;-40
2022/05/18 07:26:52;;;;;;;2.17;0.77;;;;;;;;;;4960009;29;20203;-38
2022/05/18 07:29:19;;;;;;;4.00;0.70;;;;;;;;;;4959709;29;20274;-39
2022/05/18 07:34:32;;;;;;;2.42;0.80;;;;;;;;;;4960132;29;20539;-38
2022/05/18 07:36:59;;;;;;;2.60;1.20;;;;;;;;;;4959961;29;20208;-39
2022/05/18 07:39:28;;;;;;;3.35;0.73;;;;;;;;;;4959754;29;20207;-39
2022/05/18 07:41:56;;;;;;;8.68;0.95;;;;;;;;;;4959689;29;20641;-39
2022/05/18 07:44:23;;;;;;;2.58;0.75;;;;;;;;;;4959913;29;20200;-39
2022/05/18 07:46:50;;;;;;;2.95;0.88;;;;;;;;;;4959640;29;20207;-39
2022/05/18 07:49:18;;;;;;;1.70;0.85;;;;;;;;;;4959856;29;20215;-39
2022/05/18 07:51:45;;;;;;;1.55;0.60;;;;;;;;;;4959559;29;20207;-39
2022/05/18 07:54:12;;;;;;;1.98;0.70;;;;;;;;;;4959454;29;20262;-38
2022/05/18 07:56:39;;;;;;;1.63;0.90;;;;;;;;;;4959427;29;20212;-39
2022/05/18 07:59:07;;;;;;;2.03;0.65;;;;;;;;;;4959678;29;20208;-39
2022/05/18 08:01:36;;;;;;;0.60;0.60;;;;;;;;;;4959562;29;20605;-39
2022/05/18 08:04:04;;;;;;;0.60;0.60;;;;;;;;;;4959337;29;20212;-39
2022/05/18 08:06:32;;;;;;;1.10;0.60;;;;;;;;;;4959357;29;20295;-39
2022/05/18 08:08:59;;;;;;;1.50;0.63;;;;;;;;;;4958954;29;20204;-38
2022/05/18 08:16:57;;;;;;;1.95;1.15;;;;;;;;;;4959285;29;20195;-39
2022/05/18 08:19:25;;;;;;;2.95;0.80;;;;;;;;;;4959268;29;20214;-39
2022/05/18 08:21:52;;;;;;;2.13;0.60;;;;;;;;;;4958762;28;20199;-39
2022/05/18 08:24:19;;;;;;;2.10;0.55;;;;;;;;;;4958989;29;20211;-39
2022/05/18 08:26:47;;;;;;;1.65;0.80;;;;;;;;;;4958628;29;20631;-39
2022/05/18 08:29:14;;;;;;;0.80;0.75;;;;;;;;;;4959100;29;20262;-39
2022/05/18 08:31:47;;;;;;;1.90;0.70;;;;;;;;;;4958993;29;20567;-39
2022/05/18 08:34:14;;;;;;;0.60;0.60;;;;;;;;;;4959171;29;20207;-39
2022/05/18 08:36:42;;;;;;;4.32;0.95;;;;;;;;;;4959294;29;20597;-38
2022/05/18 08:39:10;;;;;;;1.58;0.60;;;;;;;;;;4958714;29;20212;-39
2022/05/18 08:41:42;;;;;;;2.45;0.80;;;;;;;;;;4958656;29;20210;-39
2022/05/18 08:44:19;;;;;;;2.00;0.68;;;;;;;;;;4942040;29;20211;-39
2022/05/18 08:47:05;;;;;;;4.43;0.80;;;;;;;;;;4942246;29;20215;-39
2022/05/18 08:49:39;;;;;;;1.20;0.60;;;;;;;;;;4941766;29;20573;-39
2022/05/18 08:52:20;;;;;;;0.80;0.60;;;;;;;;;;4958105;29;20216;-39
2022/05/18 08:55:29;;;;;;;1.52;0.77;;;;;;;;;;4941762;29;20207;-39
2022/05/18 08:57:58;;;;;;;2.30;0.82;;;;;;;;;;4920965;29;20258;-39
2022/05/18 09:00:50;;;;;;;2.00;1.00;;;;;;;;;;4958274;29;20642;-39
2022/05/18 09:03:20;;;;;;;1.48;0.90;;;;;;;;;;4958590;29;20203;-39
2022/05/18 09:06:00;;;;;;;1.42;0.60;;;;;;;;;;4941499;29;20580;-38
2022/05/18 09:08:32;;;;;;;0.77;0.70;;;;;;;;;;4941382;29;20635;-38
2022/05/18 09:11:09;;;;;;;3.33;0.95;;;;;;;;;;4941366;29;20661;-39
2022/05/18 09:13:38;;;;;;;4.32;0.70;;;;;;;;;;4958270;29;20199;-39
2022/05/18 09:16:28;;;;;;;0.77;0.70;;;;;;;;;;4957451;29;20208;-39
2022/05/18 09:19:09;;;;;;;1.13;0.80;;;;;;;;;;4951112;29;20218;-39
2022/05/18 09:21:54;;;;;;;2.20;0.70;;;;;;;;;;4957995;29;20610;-39
2022/05/18 09:24:59;;;;;;;3.78;0.98;;;;;;;;;;4957683;29;20203;-40
2022/05/18 09:27:36;;;;;;;3.13;0.70;;;;;;;;;;4941904;29;20210;-39
2022/05/18 09:30:54;;;;;;;2.28;0.98;;;;;;;;;;4941017;29;20237;-40
2022/05/18 09:33:52;;;;;;;4.13;1.00;;;;;;;;;;4898590;29;20213;-39
2022/05/18 09:37:00;;;;;;;1.70;0.90;;;;;;;;;;4899072;29;20220;-39
2022/05/18 09:39:32;;;;;;;2.08;0.70;;;;;;;;;;4869563;29;20227;-39
2022/05/18 09:42:09;;;;;;;1.98;0.70;;;;;;;;;;4898899;29;20554;-39
2022/05/18 09:44:42;;;;;;;3.55;0.90;;;;;;;;;;4898915;29;20308;-39
2022/05/18 09:47:15;;;;;;;2.35;0.90;;;;;;;;;;4898241;29;20237;-39
2022/05/18 09:49:45;;;;;;;1.08;0.82;;;;;;;;;;4867838;29;20221;-39
2022/05/18 09:52:13;;;;;;;0.90;0.90;;;;;;;;;;4883578;29;20208;-39
2022/05/18 09:54:40;;;;;;;1.70;0.90;;;;;;;;;;4883034;29;20658;-39
2022/05/18 09:57:18;;;;;;;1.30;0.80;;;;;;;;;;4898404;29;20217;-39
2022/05/18 09:59:48;;;;;;;2.45;1.00;;;;;;;;;;4898845;29;20209;-39
2022/05/18 10:07:57;;;;;;;3.70;0.82;;;;;;;;;;4906094;29;20207;-39
2022/05/18 10:10:36;;;;;;;4.60;1.23;;;;;;;;;;4937729;29;20749;-39
2022/05/18 10:13:09;;;;;;;2.65;1.02;;;;;;;;;;4938191;29;20221;-39
2022/05/18 10:16:06;;;;;;;2.30;0.85;;;;;;;;;;4937874;29;20208;-38
2022/05/18 10:19:00;;;;;;;1.98;1.15;;;;;;;;;;4921360;29;20291;-38
2022/05/18 10:21:35;;;;;;;5.63;1.05;;;;;;;;;;4935316;29;20227;-38
2022/05/18 10:24:04;;;;;;;4.53;1.42;;;;;;;;;;4921437;29;20531;-39
2022/05/18 10:26:40;;;;;;;2.35;0.70;;;;;;;;;;4937513;29;20204;-39
2022/05/18 10:29:20;;;;;;;0.95;0.82;;;;;;;;;;4937782;29;20215;-39
2022/05/18 10:32:24;;;;;;;1.70;1.00;;;;;;;;;;4939520;29;20251;-39
2022/05/18 10:34:54;;;;;;;1.33;0.88;;;;;;;;;;4898143;29;20215;-38
2022/05/18 10:37:31;;;;;;;3.25;0.80;;;;;;;;;;4898021;29;20727;-38
2022/05/18 10:40:09;;;;;;;1.92;1.05;;;;;;;;;;4898334;29;20211;-39
2022/05/18 10:42:48;;;;;;;2.92;1.10;;;;;;;;;;4898075;29;20208;-38
2022/05/18 10:45:35;;;;;;;2.95;0.90;;;;;;;;;;4895623;29;20224;-38
2022/05/18 10:48:16;;;;;;;2.90;0.98;;;;;;;;;;4900676;29;20257;-39
2022/05/18 10:50:45;;;;;;;1.60;0.80;;;;;;;;;;4885155;29;20233;-38
2022/05/18 10:53:17;;;;;;;1.42;1.00;;;;;;;;;;4885899;29;20237;-38
2022/05/18 10:55:53;;;;;;;2.25;0.90;;;;;;;;;;4900522;29;20585;-39
2022/05/18 10:58:26;;;;;;;0.93;0.70;;;;;;;;;;4900655;29;20236;-39
2022/05/18 11:00:58;;;;;;;1.20;1.00;;;;;;;;;;4900475;29;20240;-38
2022/05/18 11:03:50;;;;;;;1.00;0.73;;;;;;;;;;4901089;29;20320;-39
2022/05/18 11:06:28;;;;;;;1.33;1.00;;;;;;;;;;4900896;29;20229;-39
2022/05/18 11:09:05;;;;;;;1.08;0.90;;;;;;;;;;4932100;29;20242;-39
2022/05/18 11:11:47;;;;;;;1.45;0.95;;;;;;;;;;4958489;29;20243;-39
2022/05/18 11:14:16;;;;;;;4.88;1.10;;;;;;;;;;4942392;29;20243;-39
2022/05/18 11:16:55;;;;;;;1.38;0.90;;;;;;;;;;4959302;29;20231;-38
2022/05/18 11:19:44;;;;;;;2.17;0.70;;;;;;;;;;4958653;29;20278;-40
2022/05/18 11:22:30;;;;;;;1.75;0.98;;;;;;;;;;4942913;29;20239;-39
2022/05/18 11:25:26;;;;;;;4.95;1.33;;;;;;;;;;4959306;29;20232;-39
2022/05/18 11:28:30;;;;;;;5.70;1.02;;;;;;;;;;4945581;29;20227;-38
2022/05/18 11:31:12;;;;;;;1.02;0.65;;;;;;;;;;4938317;29;20704;-38
2022/05/18 11:33:49;;;;;;;1.63;1.05;;;;;;;;;;4940057;29;20236;-39
2022/05/18 11:36:42;;;;;;;3.60;0.70;;;;;;;;;;4923622;29;20236;-39
2022/05/18 11:39:20;;;;;;;1.63;0.82;;;;;;;;;;4939898;29;20547;-39
2022/05/18 11:42:11;;;;;;;2.10;1.02;;;;;;;;;;4931243;29;20219;-40
2022/05/18 11:44:53;;;;;;;4.50;0.80;;;;;;;;;;4953599;29;20663;-39
2022/05/18 11:47:20;;;;;;;1.88;1.00;;;;;;;;;;4954223;29;20230;-40
2022/05/18 11:50:05;;;;;;;0.70;0.70;;;;;;;;;;4958500;29;20231;-40
2022/05/18 11:53:12;;;;;;;1.38;0.75;;;;;;;;;;4937992;29;20241;-40
2022/05/18 11:55:57;;;;;;;1.77;0.80;;;;;;;;;;4951863;28;20223;-39
2022/05/18 11:59:10;;;;;;;1.30;1.02;;;;;;;;;;4954961;29;20243;-42
2022/05/18 12:01:54;;;;;;;2.55;1.08;;;;;;;;;;4957117;29;20234;-39
2022/05/18 12:04:24;;;;;;;6.07;0.98;;;;;;;;;;4957247;29;20305;-40
2022/05/18 12:07:03;;;;;;;1.75;0.90;;;;;;;;;;4953206;29;20231;-41
2022/05/18 12:09:48;;;;;;;3.38;0.85;;;;;;;;;;4936175;29;20238;-38
2022/05/18 12:12:18;;;;;;;6.72;2.15;;;;;;;;;;4953299;29;20666;-39
2022/05/18 12:15:08;;;;;;;1.50;0.88;;;;;;;;;;4957311;29;20222;-39
2022/05/18 12:17:48;;;;;;;1.67;0.90;;;;;;;;;;4939357;29;20289;-38
2022/05/18 12:20:24;;;;;;;1.23;0.80;;;;;;;;;;4953459;29;20230;-38
2022/05/18 12:22:57;;;;;;;2.33;0.90;;;;;;;;;;4952873;29;20218;-39
2022/05/18 12:25:26;;;;;;;1.35;0.80;;;;;;;;;;4940900;29;20238;-40
2022/05/18 12:27:56;;;;;;;4.63;0.80;;;;;;;;;;4950369;29;20629;-39
2022/05/18 12:30:24;;;;;;;1.67;0.70;;;;;;;;;;4940373;29;20239;-39
2022/05/18 12:32:53;;;;;;;3.25;0.80;;;;;;;;;;4952454;29;20215;-40
2022/05/18 12:35:40;;;;;;;3.55;0.88;;;;;;;;;;4941453;29;20233;-40
2022/05/18 12:38:20;;;;;;;5.82;1.17;;;;;;;;;;4957083;28;20239;-39
2022/05/18 12:40:54;;;;;;;5.13;0.93;;;;;;;;;;4958147;29;20250;-39
2022/05/18 12:43:30;;;;;;;2.28;0.95;;;;;;;;;;4940853;29;20238;-40
2022/05/18 12:46:02;;;;;;;2.50;1.10;;;;;;;;;;4957783;29;20701;-40
2022/05/18 12:48:34;;;;;;;2.97;1.00;;;;;;;;;;4936974;29;20732;-40
2022/05/18 12:51:34;;;;;;;1.55;0.80;;;;;;;;;;4957416;29;20227;-40
2022/05/18 12:54:15;;;;;;;1.15;0.70;;;;;;;;;;4940810;29;20238;-40
2022/05/18 12:57:07;;;;;;;1.20;0.85;;;;;;;;;;4956467;29;20227;-39
2022/05/18 13:00:08;;;;;;;2.65;0.70;;;;;;;;;;4952662;29;20230;-40
2022/05/18 13:02:40;;;;;;;1.05;0.80;;;;;;;;;;4938028;29;20227;-39
2022/05/18 13:05:31;;;;;;;1.95;0.95;;;;;;;;;;4938602;29;20232;-39
2022/05/18 13:08:19;;;;;;;3.55;0.77;;;;;;;;;;4936516;29;20228;-39
2022/05/18 13:11:06;;;;;;;1.40;0.80;;;;;;;;;;4937983;29;20576;-40
2022/05/18 13:13:55;;;;;;;3.08;0.95;;;;;;;;;;4937715;29;20236;-39
2022/05/18 13:16:54;;;;;;;2.30;0.90;;;;;;;;;;4938052;29;20603;-41
2022/05/18 13:19:27;;;;;;;3.58;0.82;;;;;;;;;;4920824;29;20231;-41
2022/05/18 13:22:20;;;;;;;2.30;0.95;;;;;;;;;;4940230;29;20223;-40
2022/05/18 13:24:58;;;;;;;4.03;0.70;;;;;;;;;;4941493;29;20239;-40
2022/05/18 13:27:36;;;;;;;1.52;0.65;;;;;;;;;;4939770;29;20619;-42
2022/05/18 13:30:10;;;;;;;1.75;0.70;;;;;;;;;;4956942;29;20234;-39
2022/05/18 13:32:38;;;;;;;4.20;0.90;;;;;;;;;;4956698;29;20247;-40
2022/05/18 13:35:19;;;;;;;2.42;0.77;;;;;;;;;;4924735;29;20223;-40
2022/05/18 13:38:07;;;;;;;2.30;0.63;;;;;;;;;;4956146;28;20285;-41
2022/05/18 13:40:34;;;;;;;3.47;0.60;;;;;;;;;;4940625;29;20227;-39
2022/05/18 13:43:05;;;;;;;1.02;0.68;;;;;;;;;;4956356;28;20227;-39
2022/05/18 13:45:33;;;;;;;1.00;0.70;;;;;;;;;;4956811;29;20235;-40
2022/05/18 13:48:00;;;;;;;3.42;0.90;;;;;;;;;;4956724;28;20228;-39
2022/05/18 13:50:29;;;;;;;4.82;0.77;;;;;;;;;;4956357;29;20226;-39
2022/05/18 13:53:06;;;;;;;1.45;0.82;;;;;;;;;;4956253;28;20246;-40
2022/05/18 13:55:42;;;;;;;1.05;0.80;;;;;;;;;;4939259;29;20686;-41
2022/05/18 13:58:14;;;;;;;3.40;1.10;;;;;;;;;;4954931;29;20233;-39
2022/05/18 14:00:47;;;;;;;0.82;0.60;;;;;;;;;;4952823;29;20638;-39
2022/05/18 14:03:19;;;;;;;2.25;0.90;;;;;;;;;;4937218;29;20234;-39
2022/05/18 14:05:48;;;;;;;2.13;0.77;;;;;;;;;;4956036;29;20293;-41
2022/05/18 14:08:48;;;;;;;1.05;0.90;;;;;;;;;;4953318;29;20223;-41
2022/05/18 14:11:17;;;;;;;1.35;0.70;;;;;;;;;;4937417;29;20226;-40
2022/05/18 14:13:47;;;;;;;1.73;0.77;;;;;;;;;;4955440;29;20254;-39
2022/05/18 14:16:34;;;;;;;0.98;0.60;;;;;;;;;;4955492;29;20250;-40
2022/05/18 14:19:04;;;;;;;0.90;0.80;;;;;;;;;;4939411;29;20238;-44
2022/05/18 14:21:31;;;;;;;1.80;0.80;;;;;;;;;;4956182;29;20721;-40
2022/05/18 14:24:02;;;;;;;4.30;0.80;;;;;;;;;;4939414;29;20230;-40
2022/05/18 14:26:41;;;;;;;3.13;0.80;;;;;;;;;;4955635;29;20302;-40
2022/05/18 14:29:12;;;;;;;0.60;0.50;;;;;;;;;;4955303;29;20223;-40
2022/05/18 14:31:45;;;;;;;1.08;0.70;;;;;;;;;;4938300;29;20235;-41
2022/05/18 14:34:13;;;;;;;1.17;0.60;;;;;;;;;;4936642;29;20226;-39
2022/05/18 14:36:47;;;;;;;1.30;0.70;;;;;;;;;;4938700;29;20230;-39
2022/05/18 14:39:22;;;;;;;3.30;0.80;;;;;;;;;;4951125;29;20660;-40
2022/05/18 14:41:54;;;;;;;3.30;0.60;;;;;;;;;;4938905;29;20223;-39
2022/05/18 14:44:27;;;;;;;0.98;0.77;;;;;;;;;;4938624;29;20324;-42
2022/05/18 14:47:42;;;;;;;3.17;0.70;;;;;;;;;;4955690;29;20234;-39
2022/05/18 14:50:15;;;;;;;1.23;0.70;;;;;;;;;;4955031;28;20262;-39
2022/05/18 14:52:50;;;;;;;2.75;0.63;;;;;;;;;;4955815;29;20239;-40
2022/05/18 14:55:26;;;;;;;0.98;0.65;;;;;;;;;;4955976;28;20253;-39
2022/05/18 14:57:54;;;;;;;0.50;0.50;;;;;;;;;;4955486;29;20234;-40
2022/05/18 15:00:34;;;;;;;0.80;0.63;;;;;;;;;;4947630;28;20240;-41
2022/05/18 15:03:07;;;;;;;3.15;0.82;;;;;;;;;;4935922;29;20243;-39
2022/05/18 15:05:44;;;;;;;6.25;1.10;;;;;;;;;;4936603;29;20232;-41
2022/05/18 15:08:14;;;;;;;2.28;0.90;;;;;;;;;;4936914;29;20673;-39
2022/05/18 15:10:54;;;;;;;4.03;0.75;;;;;;;;;;4942533;29;20243;-39
2022/05/18 15:13:30;;;;;;;2.38;0.70;;;;;;;;;;4955725;29;20613;-43
2022/05/18 15:16:07;;;;;;;2.85;0.75;;;;;;;;;;4954963;29;20234;-39
2022/05/18 15:18:45;;;;;;;3.72;0.70;;;;;;;;;;4955696;29;20192;-39
2022/05/18 15:21:37;;;;;;;0.73;0.55;;;;;;;;;;4956451;29;20278;-40
2022/05/18 15:24:15;;;;;;;1.42;0.70;;;;;;;;;;4956578;29;20195;-39
2022/05/18 15:26:50;;;;;;;0.77;0.60;;;;;;;;;;4956881;29;20183;-39
2022/05/18 15:29:23;;;;;;;2.75;0.70;;;;;;;;;;4956105;29;20290;-39
2022/05/18 15:31:58;;;;;;;4.90;0.85;;;;;;;;;;4957961;28;20254;-39
2022/05/18 15:34:47;;;;;;;6.70;1.00;;;;;;;;;;4959919;29;20618;-39
2022/05/18 15:37:17;;;;;;;3.08;0.80;;;;;;;;;;4960406;29;20226;-39
2022/05/18 15:39:44;;;;;;;1.38;0.80;;;;;;;;;;4943094;29;20274;-39
2022/05/18 15:42:12;;;;;;;1.98;0.90;;;;;;;;;;4959803;29;20207;-39